MAPA DE AEROPUERTO

INFORMACIÓN METAR y TAF


Deprecated: The each() function is deprecated. This message will be suppressed on further calls in /home/customer/www/clickair-va.com/public_html/VAM/vam/helpers/get_metar.php on line 20
METAR FOR BIIS
ADDS - METARS form results

(1938 UTC 26 January 2023)
Data provider http://aviationweather.gov/metar/data/
 
Forecast for: BIIS (ISAFJOROUR , IS)
Text: TAF BIIS 261608Z 2617/2619 20028G40KT 9999 SCT010 BKN030
Forecast period: 1700 to 1900 UTC 26 January 2023
Forecast type: FROM: standard forecast or significant change
Winds: from the SSW (200 degrees) at 32 MPH (28 knots; 14.4 m/s)
gusting to 46 MPH (40 knots; 20.6 m/s)
Visibility: 6 or more miles (10+ km)
Ceiling: 3000 feet AGL
Clouds: scattered clouds at 1000 feet AGL
broken clouds at 3000 feet AGL
Weather: no significant weather forecast for this period
Text: TEMPO 2617/2619 23035G53KT 4000 RADZ BKN008
Forecast period: 1700 to 1900 UTC 26 January 2023
Forecast type: TEMPORARY: The following changes expected for less than half the time period
Winds: from the SW (230 degrees) at 40 MPH (35 knots; 18.0 m/s)
gusting to 61 MPH (53 knots; 27.3 m/s)
Visibility: 2.49 miles (4.01 km)
Ceiling: 800 feet AGL
Clouds: broken clouds at 800 feet AGL
Weather: RA DZ  (moderate rain, moderate drizzle)